Flight Track Log - Related Links

Times and Time Zones

All times are in EST time to prevent confusion due to time zone crossing. See the N391DT flight status page for this flight to view local times or setup timezone preferences in your user account.

Time Position Orientation Groundspeed Altitude Reporting Facility
EST Latitude Longitude Course Direction KTS MPH feet Rate Location/Type
12:10PM 26.2553 -81.6308 North 243 280 5,100  Level Miami Center
12:11PM 26.3219 -81.6333 358° North 222 255 6,600 1,850 Climbing Miami Center
12:12PM 26.3967 -81.6433 353° North 238 274 8,800 1,850 Climbing Miami Center
12:13PM 26.3772 -82.0921 North  Level Estimated
12:13PM 26.4653 -81.6556 351° North 244 281 10,300  Level Miami Center
12:14PM 26.4221 -82.1556 North  Level Estimated
12:14PM 26.5358 -81.6653 353° North 249 287 12,000  Level Miami Center
12:16PM 26.6875 -81.6900 352° North 267 307 35,000 667 Climbing Miami Center
12:17PM 26.7811 -81.7033 353° North 300 345 14,000 -10,100 Descending Miami Center
12:18PM 26.8703 -81.7186 351° North 326 375 14,800 1,750 Climbing Miami Center
12:19PM 26.9492 -81.7311 352° North 316 364 17,500 2,250 Climbing Miami Center
12:20PM 27.0219 -81.7411 353° North 278 320 19,300 1,650 Climbing Miami Center
12:21PM 27.0900 -81.7603 346° North 255 293 20,800 6,350 Climbing Miami Center
12:22PM 27.1600 -81.7889 340° North 255 293 32,000 5,600 Climbing Miami Center
12:23PM 27.2344 -81.8108 345° North 272 313 32,000 -3,600 Level Miami Center
12:24PM 27.3006 -81.8347 342° North 273 314 24,800 -2,950 Descending Miami Center
12:25PM 27.3808 -81.8617 343° North 273 314 26,100 1,200 Climbing Miami Center
12:26PM 27.4531 -81.8858 343° North 273 314 27,200 1,036 Climbing Miami Center
12:27PM 27.5811 -81.9328 342° North 272 313 29,000 964 Climbing Jacksonville Center
12:28PM 27.6583 -81.9625 341° North 267 307 29,900 850 Climbing Jacksonville Center
12:29PM 27.7294 -81.9878 343° North 272 313 30,700 750 Climbing Jacksonville Center
12:30PM 27.8069 -82.0081 347° North 272 313 31,400 650 Climbing Jacksonville Center
12:31PM 27.8839 -82.0075 360° North 286 329 32,000 300 Climbing Jacksonville Center
12:32PM 27.9736 -82.0114 358° North 300 345 32,000  Level Jacksonville Center
12:33PM 28.0533 -82.0506 337° Northwest 313 360 32,000  Level Jacksonville Center
12:34PM 28.1081 -82.1183 312° West 290 334 32,000 350 Level Jacksonville Center
12:35PM 28.1522 -82.1958 303° West 290 334 32,700 900 Climbing Jacksonville Center
12:36PM 28.1942 -82.2639 305° West 280 322 33,800 850 Climbing Jacksonville Center
12:37PM 28.2322 -82.3294 303° West 268 308 34,400 700 Climbing Jacksonville Center
12:38PM 28.2678 -82.3953 302° West 256 295 35,200 750 Climbing Jacksonville Center
12:39PM 28.3058 -82.4564 305° West 245 282 35,900 400 Climbing Jacksonville Center
12:40PM 28.3414 -82.5200 302° West 245 282 36,000 50 Climbing Jacksonville Center
12:41PM 28.3769 -82.5858 302° West 240 276 36,000  Level Jacksonville Center
12:42PM 28.4169 -82.6542 304° West 251 289 36,000  Level Jacksonville Center
12:43PM 28.4567 -82.7250 303° West 256 295 36,000  Level Jacksonville Center
12:44PM 28.4983 -82.7958 304° West 262 302 36,000  Level Jacksonville Center
12:45PM 28.5403 -82.8714 302° West 276 318 36,000  Level Jacksonville Center
12:46PM 28.5839 -82.9422 305° West 276 318 36,000  Level Jacksonville Center
12:47PM 28.6297 -83.0250 302° West 276 318 36,000  Level Jacksonville Center
12:48PM 28.6714 -83.1031 301° West 276 318 36,000  Level Jacksonville Center
12:49PM 28.7153 -83.1767 304° West 276 318 36,000  Level Jacksonville Center
12:50PM 28.7589 -83.2525 303° West 281 323 36,000  Level Jacksonville Center
12:51PM 28.8025 -83.3308 302° West 287 330 36,000  Level Jacksonville Center
12:52PM 28.8458 -83.4092 302° West 292 336 36,000  Level Jacksonville Center
12:53PM 28.8914 -83.4903 303° West 297 342 36,000  Level Jacksonville Center
12:54PM 28.9350 -83.5664 303° West 297 342 36,000  Level Jacksonville Center
12:55PM 28.9803 -83.6450 303° West 297 342 36,000  Level Jacksonville Center
12:56PM 29.0236 -83.7261 301° West 297 342 36,000  Level Jacksonville Center
12:57PM 29.0692 -83.8047 304° West 302 348 36,000  Level Jacksonville Center
12:58PM 29.1125 -83.8836 302° West 297 342 36,000  Level Jacksonville Center
12:59PM 29.1556 -83.9625 302° West 297 342 36,000  Level Jacksonville Center
01:00PM 29.2008 -84.0417 303° West 297 342 36,000  Level Jacksonville Center
01:01PM 29.2439 -84.1231 301° West 297 342 36,000  Level Jacksonville Center
01:02PM 29.2869 -84.1997 303° West 297 342 36,000  Level Jacksonville Center
01:03PM 29.3319 -84.2814 302° West 297 342 36,000  Level Jacksonville Center
01:04PM 29.3750 -84.3606 302° West 297 342 36,000  Level Jacksonville Center
01:05PM 29.4178 -84.4400 302° West 297 342 36,000  Level Jacksonville Center
01:06PM 29.4608 -84.5217 301° West 297 342 36,000  Level Jacksonville Center
01:07PM 29.5056 -84.6011 303° West 297 342 36,000  Level Jacksonville Center
01:08PM 29.5506 -84.6783 304° West 297 342 36,000  Level Jacksonville Center
01:09PM 29.5931 -84.7578 302° West 297 342 36,000  Level Jacksonville Center
01:10PM 29.6358 -84.8353 302° West 297 342 36,000  Level Jacksonville Center
01:11PM 29.6783 -84.9150 302° West 297 342 36,000  Level Jacksonville Center
01:12PM 29.7231 -84.9947 303° West 297 342 36,000  Level Jacksonville Center
01:13PM 29.7656 -85.0747 301° West 297 342 36,000  Level Jacksonville Center
01:14PM 29.8081 -85.1522 302° West 297 342 36,000  Level Jacksonville Center
01:15PM 29.8506 -85.2322 302° West 297 342 36,000  Level Jacksonville Center
01:16PM 29.8950 -85.3122 303° West 297 342 36,000  Level Jacksonville Center
01:17PM 29.9353 -85.3900 301° West 297 342 36,000  Level Jacksonville Center
01:18PM 29.9794 -85.4678 303° West 297 342 36,000  Level Jacksonville Center
01:19PM 30.0133 -85.5478 296° West 297 342 36,000  Level Jacksonville Center
01:20PM 30.0578 -85.6258 303° West 303 349 36,000  Level Jacksonville Center
01:21PM 30.0978 -85.7014 301° West 293 337 36,000  Level Jacksonville Center
01:22PM 30.1397 -85.7819 301° West 288 331 36,000  Level Jacksonville Center
01:23PM 30.1819 -85.8600 302° West 293 337 36,000  Level Jacksonville Center
01:24PM 30.2239 -85.9383 302° West 293 337 36,000  Level Jacksonville Center
01:25PM 30.2658 -86.0189 301° West 293 337 36,000  Level Jacksonville Center
01:26PM 30.3097 -86.0997 302° West 293 337 36,000  Level Jacksonville Center
01:27PM 30.3514 -86.1806 301° West 298 343 36,000  Level Jacksonville Center
01:28PM 30.3953 -86.2639 301° West 298 343 36,000  Level Jacksonville Center
01:29PM 30.4369 -86.3450 301° West 298 343 36,000  Level Jacksonville Center
01:30PM 30.4786 -86.4261 301° West 298 343 36,000  Level Jacksonville Center
01:31PM 30.5242 -86.5072 303° West 298 343 36,000  Level Jacksonville Center
01:32PM 30.5656 -86.5908 300° West 298 343 36,000  Level Jacksonville Center
01:33PM 30.6092 -86.6722 302° West 298 343 36,000  Level Jacksonville Center
01:34PM 30.6506 -86.7558 300° West 298 343 36,000  Level Jacksonville Center
01:35PM 30.6939 -86.8375 302° West 298 343 36,000  Level Jacksonville Center
01:36PM 30.7372 -86.9214 301° West 298 343 36,000  Level Jacksonville Center
01:37PM 30.7806 -87.0053 301° West 298 343 36,000  Level Jacksonville Center
01:38PM 30.8236 -87.0894 301° West 298 343 36,000  Level Jacksonville Center
01:39PM 30.8667 -87.1736 301° West 298 343 36,000  Level Jacksonville Center
01:41PM 30.9492 -87.3375 300° West 300 345 36,000  Level Memphis Center
01:42PM 30.9903 -87.4214 300° West 301 346 36,000  Level Houston Center
01:43PM 31.0328 -87.5050 301° West 302 348 36,000  Level Houston Center
01:44PM 31.0758 -87.5878 301° West 301 346 36,000  Level Houston Center
01:45PM 31.1186 -87.6717 301° West 302 348 36,000  Level Houston Center
01:46PM 31.1650 -87.7608 301° West 305 351 36,000  Level Houston Center
01:48PM 31.2064 -87.8436 300° West 300 345 36,000  Level Houston Center
01:49PM 31.2519 -87.9350 300° West 293 337 36,000  Level Houston Center
01:50PM 31.2928 -88.0175 300° West 296 341 36,000  Level Houston Center
01:51PM 31.3344 -88.0986 301° West 295 339 36,000  Level Houston Center
01:52PM 31.3744 -88.1800 300° West 293 337 36,000  Level Houston Center
01:53PM 31.4242 -88.2781 301° West 294 338 36,000  Level Houston Center
01:54PM 31.4642 -88.3583 300° West 290 334 36,000  Level Houston Center
01:55PM 31.5044 -88.4408 300° West 291 335 36,000  Level Houston Center
01:56PM 31.5442 -88.5197 301° West 286 329 36,000  Level Houston Center
01:57PM 31.5847 -88.6011 300° West 289 333 36,000  Level Houston Center
01:58PM 31.6331 -88.6994 300° West 291 335 36,000  Level Houston Center
01:59PM 31.6739 -88.7808 301° West 290 334 36,000  Level Houston Center
02:00PM 31.7133 -88.8622 300° West 288 331 36,000  Level Houston Center
02:01PM 31.7533 -88.9458 299° West 294 338 36,000  Level Houston Center
02:02PM 31.7931 -89.0275 300° West 290 334 36,000  Level Houston Center
02:03PM 31.8336 -89.1086 300° West 288 331 36,000  Level Houston Center
02:04PM 31.8781 -89.1964 301° West 289 333 36,000  Level Memphis Center
02:05PM 31.9178 -89.2783 300° West 289 333 36,000  Level Memphis Center
02:06PM 31.9578 -89.3606 300° West 291 335 36,000  Level Memphis Center
02:07PM 31.9972 -89.4431 299° West 290 334 36,000  Level Memphis Center
02:08PM 32.0367 -89.5253 300° West 289 333 36,000  Level Memphis Center
02:09PM 32.0758 -89.6078 299° West 290 334 36,000  Level Memphis Center
02:10PM 32.1239 -89.7072 300° West 290 334 36,000  Level Memphis Center
02:11PM 32.1636 -89.7897 300° West 291 335 36,000  Level Memphis Center
02:12PM 32.2028 -89.8725 299° West 290 334 36,000  Level Memphis Center
02:13PM 32.2414 -89.9544 299° West 288 331 36,000  Level Memphis Center
02:14PM 32.2808 -90.0372 299° West 288 331 36,000  Level Memphis Center
02:15PM 32.3194 -90.1189 299° West 286 329 36,000  Level Memphis Center
02:16PM 32.3592 -90.2008 300° West 288 331 36,000  Level Memphis Center
02:17PM 32.3978 -90.2833 299° West 287 330 36,000  Level Memphis Center
02:18PM 32.4364 -90.3653 299° West 286 329 36,000  Level Memphis Center
02:19PM 32.4825 -90.4647 299° West 287 330 36,000  Level Memphis Center
02:20PM 32.5208 -90.5469 299° West 287 330 36,000  Level Memphis Center
02:21PM 32.5603 -90.6283 300° West 286 329 36,000  Level Memphis Center
02:22PM 32.5981 -90.7100 299° West 284 327 36,000  Level Memphis Center
02:23PM 32.6358 -90.7919 299° West 284 327 36,000  Level Memphis Center
02:24PM 32.6744 -90.8747 299° West 287 330 36,000  Level Memphis Center
02:25PM 32.7128 -90.9564 299° West 285 328 36,000  Level Memphis Center
02:27PM 32.7583 -91.0550 299° West 285 328 36,000  Level Memphis Center
02:28PM 32.7969 -91.1383 299° West 287 330 36,000  Level Memphis Center
02:29PM 32.8347 -91.2206 299° West 285 328 36,000  Level Memphis Center
02:30PM 32.8719 -91.3028 298° West 286 329 36,000  Level Memphis Center
02:31PM 32.9097 -91.3858 298° West 285 328 36,000  Level Memphis Center
02:32PM 32.9492 -91.4681 300° West 285 328 36,000  Level Memphis Center
02:33PM 32.9864 -91.5508 298° West 285 328 36,000  Level Memphis Center
02:34PM 33.0247 -91.6342 299° West 285 328 36,000  Level Memphis Center
02:35PM 33.0697 -91.7333 298° West 285 328 36,000  Level Memphis Center
02:36PM 33.1086 -91.8167 299° West 287 330 36,000  Level Memphis Center
02:37PM 33.1439 -91.9011 297° West 286 329 36,000  Level Memphis Center
02:38PM 33.1817 -91.9850 298° West 287 330 36,000  Level Memphis Center
02:39PM 33.2217 -92.0739 298° West 288 331 36,000  Level Memphis Center
02:40PM 33.2597 -92.1575 299° West 288 331 36,000  Level Memphis Center
02:41PM 33.2975 -92.2417 298° West 288 331 36,000  Level Memphis Center
02:42PM 33.3336 -92.3272 297° West 288 331 36,000  Level Memphis Center
02:43PM 33.3728 -92.4117 299° West 288 331 36,000  Level Fort Worth Center
02:44PM 33.4103 -92.4969 298° West 289 333 36,000  Level Fort Worth Center
02:45PM 33.4483 -92.5817 298° West 289 333 36,000  Level Fort Worth Center
02:46PM 33.4942 -92.6831 298° West 290 334 36,000  Level Fort Worth Center
02:47PM 33.5311 -92.7675 298° West 287 330 36,000  Level Fort Worth Center
02:48PM 33.5681 -92.8525 298° West 288 331 36,000  Level Fort Worth Center
02:49PM 33.6044 -92.9361 298° West 284 327 36,000  Level Fort Worth Center
02:50PM 33.6417 -93.0208 298° West 285 328 36,000  Level Memphis Center
02:51PM 33.6858 -93.1214 298° West 285 328 36,000  Level Memphis Center
02:53PM 33.7581 -93.2875 298° West 284 327 36,000  Level Fort Worth Center
02:54PM 33.7950 -93.3697 298° West 281 323 36,000  Level Fort Worth Center
02:55PM 33.8297 -93.4544 296° West 283 326 36,000  Level Fort Worth Center
02:56PM 33.8667 -93.5361 299° West 281 323 36,000  Level Fort Worth Center
02:57PM 33.9100 -93.6378 297° West 285 328 36,000  Level Fort Worth Center
02:58PM 33.9464 -93.7228 297° West 287 330 36,000  Level Fort Worth Center
02:59PM 33.9839 -93.8083 298° West 290 334 36,000  Level Fort Worth Center
03:00PM 34.0197 -93.8939 297° West 289 333 36,000  Level Fort Worth Center
03:01PM 34.0561 -93.9778 298° West 286 329 36,000  Level Fort Worth Center
03:02PM 34.0925 -94.0639 297° West 287 330 36,000  Level Fort Worth Center
03:03PM 34.1364 -94.1681 297° West 292 336 36,000  Level Fort Worth Center
03:05PM 34.1722 -94.2528 297° West 287 330 36,000  Level Fort Worth Center
03:06PM 34.2081 -94.3386 297° West 288 331 36,000  Level Fort Worth Center
03:07PM 34.2450 -94.4250 297° West 290 334 36,000  Level Fort Worth Center
03:08PM 34.2814 -94.5117 297° West 289 333 36,000  Level Fort Worth Center
03:09PM 34.3178 -94.5975 297° West 288 331 36,000  Level Fort Worth Center
03:10PM 34.3617 -94.7000 297° West 286 329 36,000  Level Fort Worth Center
03:11PM 34.3964 -94.7856 296° West 284 327 36,000  Level Fort Worth Center
03:12PM 34.4317 -94.8714 297° West 287 330 36,000  Level Fort Worth Center
03:13PM 34.4675 -94.9561 297° West 284 327 36,000  Level Fort Worth Center
03:14PM 34.5036 -95.0408 297° West 284 327 36,000  Level Fort Worth Center
03:15PM 34.5383 -95.1286 296° West 289 333 36,000  Level Fort Worth Center
03:16PM 34.5728 -95.2150 296° West 286 329 36,000  Level Fort Worth Center
03:17PM 34.6164 -95.3172 297° West 287 330 36,000  Level Fort Worth Center
03:18PM 34.6511 -95.4022 296° West 283 326 36,000  Level Fort Worth Center
03:19PM 34.6856 -95.4892 296° West 284 327 36,000  Level Fort Worth Center
03:20PM 34.7250 -95.5828 297° West 284 327 36,000  Level Fort Worth Center
03:21PM 34.7578 -95.6686 295° West 282 325 36,000  Level Fort Worth Center
03:22PM 34.7925 -95.7522 297° West 278 320 36,000  Level Fort Worth Center
03:23PM 34.8261 -95.8378 296° West 280 322 36,000 -871 Level Fort Worth Center
03:24PM 34.8617 -95.9272 296° West 293 337 34,200 -1,597 Descending Fort Worth Center
03:25PM 34.9008 -96.0264 296° West 323 372 32,700 -1,610 Descending Fort Worth Center
03:26PM 34.9478 -96.1444 296° West 324 373 30,900 -1,707 Descending Fort Worth Center
03:27PM 34.9856 -96.2358 297° West 310 357 29,200 -1,645 Descending Fort Worth Center
03:28PM 35.0208 -96.3239 296° West 295 339 27,500 -1,839 Descending Fort Worth Center
03:29PM 35.0544 -96.4108 295° West 287 330 25,400 -2,129 Descending Fort Worth Center
03:30PM 35.0906 -96.5017 296° West 293 337 23,100 -2,438 Descending Fort Worth Center
03:30PM 35.0961 -96.5175 293° West 302 348 22,800 -2,164 Descending Fort Worth Center
03:31PM 35.1253 -96.5917 296° West 292 336 20,900 -2,188 Descending Fort Worth Center
03:32PM 35.1431 -96.6400 294° West 281 323 19,700 -2,226 Descending Fort Worth Center
03:32PM 35.1586 -96.6756 298° West 276 318 18,600 -2,164 Descending Fort Worth Center
03:33PM 35.1744 -96.7242 292° West 270 311 17,500 -2,516 Descending Fort Worth Center
03:33PM 35.1972 -96.7750 299° West 270 311 16,000 -2,300 Descending Fort Worth Center
03:34PM 35.2078 -96.8056 293° West 270 311 15,200 -2,129 Descending Fort Worth Center
03:34PM 35.2281 -96.8578 295° West 268 308 13,800 -2,361 Descending Fort Worth Center
03:35PM 35.2417 -96.8944 294° West 268 308 12,800 -2,226 Descending Fort Worth Center
03:35PM 35.2597 -96.9403 296° West 268 308 11,500 -2,286 Descending Fort Worth Center
03:35PM 35.2633 -96.9497 295° West 265 305 11,200 -2,262 Descending Fort Worth Center
03:36PM 35.2922 -97.0244 295° West 266 306 9,200 -2,149 Descending Fort Worth Center
03:37PM 35.2969 -97.0364 296° West 262 302 8,800 -1,742 Descending Fort Worth Center
03:37PM 35.3258 -97.1117 295° West 263 303 7,400 -1,574 Descending Fort Worth Center
03:38PM 35.3278 -97.1183 290° West 262 302 7,200 -885 Descending Fort Worth Center
03:38PM 35.3553 -97.1906 295° West 254 292 6,500 -764 Descending Fort Worth Center
03:38PM 35.3556 -97.1894 73° East 252 290 6,500 -885 Level Fort Worth Center
03:39PM 35.3811 -97.2658 292° West 239 275 5,600 -968 Descending Fort Worth Center
03:40PM 35.3833 -97.2711 297° West 243 280 5,500 -900 Descending Fort Worth Center
03:40PM 35.4069 -97.3411 292° West 242 278 4,700 -871 Descending Fort Worth Center
03:41PM 35.4100 -97.3458 308° West 239 275 4,600 -885 Descending Fort Worth Center
03:42PM 35.4317 -97.4089 293° West 217 250 3,800 -885 Descending Fort Worth Center
03:42PM 35.4344 -97.4139 304° West 220 253 3,700 -1,000 Descending Fort Worth Center
03:43PM 35.4575 -97.4828 292° West 203 234 2,700 -564 Descending Fort Worth Center
03:44PM 35.4769 -97.5272 298° West 150 173 2,600 -97 Descending Fort Worth Center
03:44PM 35.4786 -97.5306 302° West 161 185 2,600  Level Fort Worth Center
03:44PM 35.4906 -97.5711 290° West 146 168 2,600  Level Fort Worth Center
03:45PM 35.4931 -97.5825 285° West 152 175 2,600 -395 Level Fort Worth Center
03:46PM 35.4919 -97.6303 268° West 138 159 2,100 -505 Descending Fort Worth Center
03:46PM 35.5056 -97.6458 317° Northwest 94 108 1,700 -492 Descending Fort Worth Center
03:47PM 35.5131 -97.6453 North 97 112 1,600 -375 Descending Fort Worth Center
03:49PM 35.5333 -97.6333 321° Northwest  Level FlightAware Approximate

Login

Don't have an account? Register now (free) for customized features, flight alerts, and more!